createdAt,value
2023-04-30T00:00:43.974Z,14.63
2023-04-30T00:03:32.327Z,17.45
2023-04-30T00:06:01.615Z,15.50
2023-04-30T00:08:30.438Z,14.55
2023-04-30T00:10:59.544Z,12.50
2023-04-30T00:13:31.018Z,11.88
2023-04-30T00:15:59.981Z,11.65
2023-04-30T00:19:00.122Z,12.93
2023-04-30T00:21:30.438Z,12.52
2023-04-30T00:24:02.244Z,12.93
2023-04-30T00:26:31.111Z,11.75
2023-04-30T00:28:59.556Z,15.48
2023-04-30T00:31:37.692Z,14.35
2023-04-30T00:34:07.867Z,16.92
2023-04-30T00:36:36.893Z,17.70
2023-04-30T00:39:05.607Z,14.82
2023-04-30T00:41:41.535Z,13.50
2023-04-30T00:44:09.958Z,12.50
2023-04-30T00:46:39.206Z,15.38
2023-04-30T00:49:16.381Z,12.65
2023-04-30T00:51:46.113Z,11.60
2023-04-30T00:54:17.024Z,11.75
2023-04-30T00:56:46.856Z,11.35
2023-04-30T00:59:15.794Z,11.07
2023-04-30T01:01:44.728Z,11.85
2023-04-30T01:04:13.384Z,12.50
2023-04-30T01:06:43.459Z,11.95
2023-04-30T01:09:11.957Z,10.93
2023-04-30T01:11:56.048Z,11.65
2023-04-30T01:14:40.266Z,11.02
2023-04-30T01:17:13.723Z,11.10
2023-04-30T01:19:43.681Z,11.02
2023-04-30T01:22:26.978Z,10.88
2023-04-30T01:25:08.143Z,11.13
2023-04-30T01:28:14.951Z,11.02
2023-04-30T01:30:46.850Z,11.13
2023-04-30T01:33:15.923Z,10.70
2023-04-30T01:36:02.636Z,10.85
2023-04-30T01:38:57.148Z,10.88
2023-04-30T01:41:38.726Z,12.05
2023-04-30T01:44:48.467Z,11.57
2023-04-30T01:47:46.717Z,11.40
2023-04-30T01:50:30.362Z,10.77
2023-04-30T01:53:03.986Z,11.13
2023-04-30T01:55:43.067Z,10.82
2023-04-30T01:58:37.928Z,10.13
2023-04-30T02:01:31.255Z,10.98
2023-04-30T02:04:00.780Z,12.00
2023-04-30T02:06:30.323Z,12.43
2023-04-30T02:09:05.667Z,12.18
2023-04-30T02:11:34.432Z,11.68
2023-04-30T02:14:06.065Z,11.82
2023-04-30T02:16:37.046Z,11.73
2023-04-30T02:19:07.879Z,10.98
2023-04-30T02:21:36.121Z,11.50
2023-04-30T02:24:05.226Z,11.70
2023-04-30T02:26:33.900Z,11.70
2023-04-30T02:29:02.586Z,11.95
2023-04-30T02:31:31.093Z,12.23
2023-04-30T02:33:59.679Z,12.13
2023-04-30T02:36:28.473Z,11.13
2023-04-30T02:38:57.496Z,12.60
2023-04-30T02:41:26.937Z,12.38
2023-04-30T02:43:55.596Z,12.38
2023-04-30T02:46:24.638Z,12.63
2023-04-30T02:48:53.607Z,11.77
2023-04-30T02:51:22.128Z,12.52
2023-04-30T02:53:52.083Z,12.32
2023-04-30T02:56:20.492Z,12.70
2023-04-30T02:58:55.602Z,13.18
2023-04-30T03:01:23.967Z,13.50
2023-04-30T03:03:52.830Z,14.02
2023-04-30T03:06:21.654Z,13.02
2023-04-30T03:08:50.541Z,13.02
2023-04-30T03:11:18.734Z,12.73
2023-04-30T03:13:51.847Z,13.20
2023-04-30T03:16:22.075Z,13.30
2023-04-30T03:18:51.262Z,13.27
2023-04-30T03:21:19.702Z,14.40
2023-04-30T03:23:49.074Z,13.52
2023-04-30T03:26:17.498Z,12.45
2023-04-30T03:28:46.214Z,12.48
2023-04-30T03:31:14.493Z,12.75
2023-04-30T03:33:43.620Z,13.32
2023-04-30T03:36:12.827Z,12.20
2023-04-30T03:38:42.971Z,12.68
2023-04-30T03:41:11.907Z,12.13
2023-04-30T03:43:40.543Z,12.65
2023-04-30T03:46:08.924Z,12.52
2023-04-30T03:48:37.929Z,11.75
2023-04-30T03:51:06.300Z,12.35
2023-04-30T03:53:35.095Z,12.57
2023-04-30T03:56:11.006Z,12.77
2023-04-30T03:58:40.086Z,12.60
2023-04-30T04:01:10.869Z,12.82
2023-04-30T04:03:39.836Z,13.57
2023-04-30T04:06:08.116Z,14.15
2023-04-30T04:08:37.749Z,17.00
2023-04-30T04:11:06.822Z,25.40
2023-04-30T04:13:35.546Z,39.22
2023-04-30T04:16:04.151Z,50.72
2023-04-30T04:18:33.214Z,55.65
2023-04-30T04:21:01.907Z,45.33
2023-04-30T04:23:31.984Z,46.00
2023-04-30T04:26:00.601Z,43.60
2023-04-30T04:28:30.221Z,36.03
2023-04-30T04:30:58.637Z,40.40
2023-04-30T04:33:28.110Z,26.20
2023-04-30T04:35:58.202Z,24.55
2023-04-30T04:38:26.999Z,14.70
2023-04-30T04:40:56.711Z,12.20
2023-04-30T04:43:26.374Z,12.57
2023-04-30T04:45:55.831Z,12.00
2023-04-30T04:48:24.766Z,10.70
2023-04-30T04:50:53.266Z,9.98
2023-04-30T04:53:22.205Z,9.52
2023-04-30T04:55:53.331Z,8.20
2023-04-30T04:58:21.914Z,8.40
2023-04-30T05:00:50.284Z,7.88
2023-04-30T05:03:21.195Z,7.80
2023-04-30T05:05:55.319Z,7.40
2023-04-30T05:08:23.967Z,8.02
2023-04-30T05:10:52.354Z,6.55
2023-04-30T05:13:21.025Z,6.85
2023-04-30T05:15:54.102Z,6.78
2023-04-30T05:18:22.842Z,6.07
2023-04-30T05:20:51.159Z,6.43
2023-04-30T05:23:20.186Z,6.05
2023-04-30T05:25:52.722Z,4.90
2023-04-30T05:28:21.537Z,6.07
2023-04-30T05:30:49.825Z,5.80
2023-04-30T05:33:19.109Z,5.60
2023-04-30T05:35:47.908Z,5.22
2023-04-30T05:38:17.259Z,4.65
2023-04-30T05:40:46.214Z,5.70
2023-04-30T05:43:14.840Z,5.32
2023-04-30T05:45:43.122Z,5.30
2023-04-30T05:48:11.935Z,5.38
2023-04-30T05:50:40.306Z,4.05
2023-04-30T05:53:09.326Z,3.80
2023-04-30T05:55:37.614Z,4.65
2023-04-30T05:58:06.714Z,4.60
2023-04-30T06:00:36.226Z,5.28
2023-04-30T06:08:26.412Z,4.97
2023-04-30T06:10:55.754Z,3.08
2023-04-30T06:13:27.285Z,3.83
2023-04-30T06:15:59.286Z,3.80
2023-04-30T06:18:27.941Z,4.43
2023-04-30T06:20:56.280Z,4.22
2023-04-30T06:23:25.431Z,4.45
2023-04-30T06:25:53.736Z,3.80
2023-04-30T06:28:22.256Z,3.60
2023-04-30T06:30:51.960Z,3.60
2023-04-30T06:33:20.704Z,3.22
2023-04-30T06:35:51.135Z,3.38
2023-04-30T06:38:19.967Z,4.53
2023-04-30T06:40:48.719Z,3.30
2023-04-30T06:43:17.837Z,3.20
2023-04-30T06:45:46.465Z,2.90
2023-04-30T06:48:15.084Z,3.28
2023-04-30T06:50:46.127Z,2.45
2023-04-30T06:53:15.440Z,2.45
2023-04-30T06:55:45.707Z,1.95
2023-04-30T06:58:14.654Z,2.85
2023-04-30T07:00:43.376Z,2.90
2023-04-30T07:03:12.909Z,2.15
2023-04-30T07:05:50.667Z,3.38
2023-04-30T07:08:19.359Z,3.10
2023-04-30T07:10:48.173Z,2.65
2023-04-30T07:13:17.307Z,2.22
2023-04-30T07:15:45.790Z,2.40
2023-04-30T07:18:18.738Z,2.25
2023-04-30T07:20:46.995Z,2.30
2023-04-30T07:23:15.867Z,2.65
2023-04-30T07:25:44.148Z,2.10
2023-04-30T07:28:12.702Z,1.80
2023-04-30T07:30:41.300Z,1.42
2023-04-30T07:33:10.250Z,1.90
2023-04-30T07:35:38.579Z,1.90
2023-04-30T07:38:07.536Z,2.33
2023-04-30T07:40:36.915Z,2.22
2023-04-30T07:43:08.389Z,1.90
2023-04-30T07:45:39.381Z,2.17
2023-04-30T07:48:08.389Z,2.10
2023-04-30T07:50:36.772Z,2.08
2023-04-30T07:53:09.657Z,2.00
2023-04-30T07:55:38.182Z,1.48
2023-04-30T07:58:07.547Z,1.80
2023-04-30T08:00:41.694Z,2.03
2023-04-30T08:03:10.466Z,1.83
2023-04-30T08:05:38.800Z,1.95
2023-04-30T08:08:08.895Z,2.00
2023-04-30T08:10:37.526Z,1.70
2023-04-30T08:13:06.548Z,1.63
2023-04-30T08:15:36.543Z,2.00
2023-04-30T08:18:08.176Z,1.75
2023-04-30T08:20:37.956Z,1.65
2023-04-30T08:23:08.535Z,2.10
2023-04-30T08:25:37.238Z,1.70
2023-04-30T08:28:06.935Z,1.40
2023-04-30T08:30:35.466Z,1.08
2023-04-30T08:33:05.902Z,1.80
2023-04-30T08:35:34.209Z,2.00
2023-04-30T08:38:02.727Z,1.73
2023-04-30T08:40:49.242Z,1.80
2023-04-30T08:43:19.265Z,1.67
2023-04-30T08:45:48.592Z,2.03
2023-04-30T08:48:19.134Z,1.77
2023-04-30T08:50:47.483Z,1.90
2023-04-30T08:53:17.821Z,1.80
2023-04-30T08:55:46.881Z,1.38
2023-04-30T08:58:15.454Z,1.63
2023-04-30T09:00:54.694Z,1.60
2023-04-30T09:03:23.901Z,1.98
2023-04-30T09:05:52.995Z,1.90
2023-04-30T09:08:51.132Z,1.73
2023-04-30T09:11:37.374Z,1.80
2023-04-30T09:14:06.506Z,1.67
2023-04-30T09:16:51.598Z,1.73
2023-04-30T09:19:31.424Z,1.55
2023-04-30T09:22:00.172Z,1.83
2023-04-30T09:24:46.968Z,1.73
2023-04-30T09:27:23.098Z,2.05
2023-04-30T09:29:51.965Z,2.15
2023-04-30T09:32:20.604Z,1.92
2023-04-30T09:34:49.997Z,1.83
2023-04-30T09:37:18.385Z,1.80
2023-04-30T09:40:05.521Z,2.00
2023-04-30T09:42:33.845Z,1.70
2023-04-30T09:45:05.316Z,1.88
2023-04-30T09:47:33.704Z,1.52
2023-04-30T09:50:02.498Z,1.70
2023-04-30T09:52:31.963Z,1.73
2023-04-30T09:55:00.834Z,1.58
2023-04-30T09:57:33.104Z,1.10
2023-04-30T10:00:02.787Z,1.40
2023-04-30T10:02:38.191Z,1.40
2023-04-30T10:05:08.301Z,1.67
2023-04-30T10:07:42.630Z,1.50
2023-04-30T10:10:12.767Z,1.92
2023-04-30T10:12:54.697Z,1.83
2023-04-30T10:15:37.172Z,1.90
2023-04-30T10:20:37.535Z,1.83
2023-04-30T10:23:07.331Z,2.10
2023-04-30T10:25:41.074Z,1.77
2023-04-30T10:28:19.324Z,1.83
2023-04-30T10:30:55.003Z,1.83
2023-04-30T10:33:36.460Z,2.00
2023-04-30T10:36:09.264Z,1.90
2023-04-30T10:38:39.669Z,1.90
2023-04-30T10:41:13.440Z,1.98
2023-04-30T10:43:44.289Z,1.75
2023-04-30T10:46:22.945Z,1.58
2023-04-30T10:48:56.153Z,2.05
2023-04-30T10:51:47.352Z,1.55
2023-04-30T10:54:28.444Z,2.05
2023-04-30T10:57:32.680Z,2.13
2023-04-30T11:00:07.767Z,2.10
2023-04-30T11:02:49.061Z,1.80
2023-04-30T11:05:20.736Z,1.98
2023-04-30T11:07:56.338Z,2.05
2023-04-30T11:10:30.932Z,2.20
2023-04-30T11:13:05.183Z,1.80
2023-04-30T11:15:49.190Z,2.10
2023-04-30T11:18:19.322Z,1.90
2023-04-30T11:24:07.200Z,2.10
2023-04-30T11:27:05.754Z,2.10
2023-04-30T11:30:06.588Z,2.13
2023-04-30T11:32:37.868Z,2.03
2023-04-30T11:35:10.388Z,1.77
2023-04-30T11:37:51.622Z,1.70
2023-04-30T11:40:30.241Z,1.80
2023-04-30T11:43:02.221Z,1.90
2023-04-30T11:45:35.120Z,1.83
2023-04-30T11:48:13.672Z,2.13
2023-04-30T11:50:43.457Z,1.10
2023-04-30T11:53:12.008Z,1.83
2023-04-30T11:55:41.847Z,2.08
2023-04-30T11:58:10.827Z,2.10
2023-04-30T12:00:39.461Z,1.67
2023-04-30T12:03:07.876Z,1.92
2023-04-30T12:05:36.506Z,1.90
2023-04-30T12:08:13.127Z,2.28
2023-04-30T12:10:41.964Z,1.90
2023-04-30T12:13:14.343Z,2.20
2023-04-30T12:15:43.037Z,1.90
2023-04-30T12:18:15.650Z,2.40
2023-04-30T12:20:44.410Z,1.88
2023-04-30T12:23:12.866Z,2.03
2023-04-30T12:25:47.617Z,1.90
2023-04-30T12:28:15.969Z,1.80
2023-04-30T12:30:45.362Z,1.90
2023-04-30T12:33:14.311Z,2.00
2023-04-30T12:35:44.123Z,2.30
2023-04-30T12:38:17.015Z,2.10
2023-04-30T12:40:54.886Z,2.00
2023-04-30T12:43:23.155Z,2.05
2023-04-30T12:45:53.373Z,2.13
2023-04-30T12:48:23.389Z,1.92
2023-04-30T12:50:55.948Z,2.10
2023-04-30T12:53:24.590Z,2.58
2023-04-30T12:56:13.134Z,2.25
2023-04-30T12:58:42.695Z,2.40
2023-04-30T13:01:13.290Z,2.17
2023-04-30T13:03:42.036Z,2.17
2023-04-30T13:06:11.183Z,2.50
2023-04-30T13:08:50.357Z,2.50
2023-04-30T13:11:27.488Z,2.22
2023-04-30T13:13:56.986Z,2.30
2023-04-30T13:16:26.385Z,2.42
2023-04-30T13:18:55.369Z,2.35
2023-04-30T13:21:25.111Z,2.40
2023-04-30T13:23:54.872Z,2.58
2023-04-30T13:26:26.670Z,2.22
2023-04-30T13:28:55.132Z,2.28
2023-04-30T13:31:23.981Z,2.95
2023-04-30T13:33:54.268Z,2.40
2023-04-30T13:36:23.764Z,2.60
2023-04-30T13:38:52.156Z,2.70
2023-04-30T13:41:22.151Z,2.60
2023-04-30T13:43:50.368Z,2.63
2023-04-30T13:46:19.161Z,2.47
2023-04-30T13:48:50.108Z,2.55
2023-04-30T13:53:47.322Z,2.35
2023-04-30T13:56:16.760Z,2.10
2023-04-30T13:58:46.622Z,2.50
2023-04-30T14:01:15.158Z,2.63
2023-04-30T14:03:43.854Z,2.38
2023-04-30T14:06:12.801Z,2.70
2023-04-30T14:08:40.990Z,2.72
2023-04-30T14:11:10.707Z,2.60
2023-04-30T14:13:39.396Z,2.80
2023-04-30T14:16:08.862Z,2.72
2023-04-30T14:18:37.678Z,2.45
2023-04-30T14:21:06.562Z,2.50
2023-04-30T14:23:35.938Z,2.40
2023-04-30T14:26:06.032Z,2.20
2023-04-30T14:28:36.417Z,2.70
2023-04-30T14:31:05.421Z,2.00
2023-04-30T14:33:36.409Z,1.90
2023-04-30T14:38:33.266Z,2.10
2023-04-30T14:41:01.841Z,2.30
2023-04-30T14:43:30.066Z,2.67
2023-04-30T14:45:59.082Z,2.58
2023-04-30T14:48:32.824Z,2.38
2023-04-30T14:51:01.524Z,3.60
2023-04-30T14:53:30.256Z,2.50
2023-04-30T14:55:58.871Z,2.30
2023-04-30T14:58:27.703Z,2.40
2023-04-30T15:00:56.369Z,2.60
2023-04-30T15:03:24.774Z,2.30
2023-04-30T15:05:53.630Z,2.20
2023-04-30T15:08:22.070Z,2.40
2023-04-30T15:10:50.807Z,2.25
2023-04-30T15:13:19.109Z,2.42
2023-04-30T15:15:49.880Z,2.00
2023-04-30T15:18:18.276Z,2.33
2023-04-30T15:20:47.306Z,2.13
2023-04-30T15:23:15.708Z,2.50
2023-04-30T15:25:44.441Z,2.13
2023-04-30T15:28:13.020Z,2.20
2023-04-30T15:30:42.003Z,1.85
2023-04-30T15:33:10.703Z,2.10
2023-04-30T15:35:40.346Z,2.10
2023-04-30T15:38:08.643Z,2.08
2023-04-30T15:40:37.397Z,1.92
2023-04-30T15:43:06.509Z,2.05
2023-04-30T15:45:35.707Z,2.30
2023-04-30T15:48:04.146Z,1.92
2023-04-30T15:50:33.018Z,2.33
2023-04-30T15:53:01.271Z,2.70
2023-04-30T15:55:29.925Z,1.92
2023-04-30T15:57:58.409Z,2.30
2023-04-30T16:00:27.345Z,2.40
2023-04-30T16:02:55.897Z,1.92
2023-04-30T16:05:24.878Z,2.00
2023-04-30T16:07:54.764Z,1.80
2023-04-30T16:10:23.841Z,2.20
2023-04-30T16:12:52.099Z,1.60
2023-04-30T16:15:21.086Z,2.60
2023-04-30T16:17:52.482Z,3.00
2023-04-30T16:20:21.622Z,2.13
2023-04-30T16:22:50.115Z,2.20
2023-04-30T16:25:19.782Z,2.17
2023-04-30T16:27:50.239Z,2.70
2023-04-30T16:30:18.981Z,26.33
2023-04-30T16:32:47.756Z,10.45
2023-04-30T16:35:16.412Z,2.30
2023-04-30T16:37:44.721Z,3.20
2023-04-30T16:40:13.444Z,3.60
2023-04-30T16:42:41.767Z,2.80
2023-04-30T16:45:12.137Z,2.60
2023-04-30T16:47:40.674Z,2.63
2023-04-30T16:50:09.875Z,10.60
2023-04-30T16:52:38.181Z,4.28
2023-04-30T16:55:07.746Z,2.47
2023-04-30T16:57:36.076Z,3.55
2023-04-30T17:00:06.474Z,4.13
2023-04-30T17:02:35.109Z,2.47
2023-04-30T17:05:04.672Z,3.13
2023-04-30T17:07:32.981Z,2.10
2023-04-30T17:10:01.502Z,1.80
2023-04-30T17:12:30.105Z,2.05
2023-04-30T17:14:58.527Z,2.50
2023-04-30T17:17:26.904Z,3.72
2023-04-30T17:19:55.744Z,6.85
2023-04-30T17:22:25.182Z,13.00
2023-04-30T17:24:53.775Z,5.43
2023-04-30T17:27:22.433Z,3.15
2023-04-30T17:29:51.546Z,7.38
2023-04-30T17:32:38.448Z,2.97
2023-04-30T17:35:07.635Z,2.00
2023-04-30T17:37:35.904Z,2.55
2023-04-30T17:40:05.613Z,2.53
2023-04-30T17:42:34.373Z,3.13
2023-04-30T17:45:02.937Z,2.70
2023-04-30T17:47:32.337Z,2.47
2023-04-30T17:50:04.614Z,2.78
2023-04-30T17:55:14.068Z,2.87
2023-04-30T17:57:42.621Z,10.68
2023-04-30T18:00:11.780Z,18.05
2023-04-30T18:02:43.488Z,24.17
2023-04-30T18:05:12.194Z,27.83
2023-04-30T18:07:40.550Z,19.40
2023-04-30T18:10:09.561Z,4.75
2023-04-30T18:12:46.100Z,27.15
2023-04-30T18:15:15.356Z,24.05
2023-04-30T18:17:43.722Z,27.25
2023-04-30T18:20:16.165Z,6.95
2023-04-30T18:22:56.805Z,3.17
2023-04-30T18:25:26.580Z,3.38
2023-04-30T18:27:55.197Z,6.40
2023-04-30T18:30:23.957Z,6.97
2023-04-30T18:32:52.213Z,5.57
2023-04-30T18:35:50.507Z,4.20
2023-04-30T18:38:45.735Z,3.70
2023-04-30T18:41:14.651Z,3.85
2023-04-30T18:43:43.020Z,4.65
2023-04-30T18:46:11.595Z,5.78
2023-04-30T18:48:44.610Z,7.35
2023-04-30T18:51:15.674Z,6.50
2023-04-30T18:53:45.763Z,9.15
2023-04-30T18:56:16.306Z,9.13
2023-04-30T18:58:47.223Z,6.78
2023-04-30T19:01:16.106Z,5.35
2023-04-30T19:03:44.635Z,4.60
2023-04-30T19:06:14.419Z,4.00
2023-04-30T19:10:00.551Z,3.58
2023-04-30T19:12:29.578Z,5.10
2023-04-30T21:52:47.428Z,10.93
2023-04-30T21:55:21.873Z,10.57
2023-04-30T21:57:52.604Z,10.30
2023-04-30T22:00:22.320Z,9.75
2023-04-30T22:02:56.000Z,8.80
2023-04-30T22:05:27.258Z,8.95
2023-04-30T22:07:58.356Z,8.95
2023-04-30T22:10:27.462Z,7.90
2023-04-30T22:12:56.547Z,11.50
2023-04-30T22:15:29.320Z,12.75
2023-04-30T22:18:15.703Z,16.92
2023-04-30T22:20:49.543Z,18.33
2023-04-30T22:23:21.502Z,21.52
2023-04-30T22:25:53.513Z,95.82
2023-04-30T22:28:27.305Z,179.55
2023-04-30T22:30:59.968Z,196.00
2023-04-30T22:33:40.900Z,112.68
2023-04-30T22:36:11.894Z,89.22
2023-04-30T22:38:40.538Z,46.67
2023-04-30T22:41:13.347Z,70.53
2023-04-30T22:43:49.100Z,90.03
2023-04-30T22:46:20.790Z,133.98
2023-04-30T22:48:49.711Z,79.07
2023-04-30T22:51:20.459Z,37.92
2023-04-30T22:53:49.234Z,29.30
2023-04-30T22:56:19.173Z,17.55
2023-04-30T22:58:47.837Z,14.48
2023-04-30T23:01:17.517Z,13.45
2023-04-30T23:03:48.676Z,11.82
2023-04-30T23:06:22.171Z,12.52
2023-04-30T23:08:59.916Z,12.98
2023-04-30T23:11:32.522Z,13.02
2023-04-30T23:14:01.391Z,18.15
2023-04-30T23:16:30.179Z,15.63
2023-04-30T23:19:00.961Z,15.55
2023-04-30T23:21:33.306Z,25.02
2023-04-30T23:24:03.981Z,23.73
2023-04-30T23:26:32.954Z,14.57
2023-04-30T23:29:01.740Z,12.32
2023-04-30T23:31:33.388Z,13.77
2023-04-30T23:34:01.823Z,13.30
2023-04-30T23:36:31.716Z,13.85
2023-04-30T23:39:00.480Z,21.08
2023-04-30T23:41:29.347Z,17.30
2023-04-30T23:43:57.574Z,15.70
2023-04-30T23:46:26.518Z,14.93
2023-04-30T23:48:54.820Z,15.00
2023-04-30T23:51:23.734Z,12.90
2023-04-30T23:53:52.068Z,11.13
2023-04-30T23:56:20.640Z,9.77
2023-04-30T23:58:48.968Z,9.15
